sensor_id;sensor_type;location;lat;lon;timestamp;temperature;humidity
65707;SHT31;52423;43.512;5.220;2022-07-23T00:00:11;26.23;65.53
65707;SHT31;52423;43.512;5.220;2022-07-23T00:02:37;26.24;65.43
65707;SHT31;52423;43.512;5.220;2022-07-23T00:05:03;26.16;65.60
65707;SHT31;52423;43.512;5.220;2022-07-23T00:07:29;26.14;65.71
65707;SHT31;52423;43.512;5.220;2022-07-23T00:09:54;26.13;65.76
65707;SHT31;52423;43.512;5.220;2022-07-23T00:12:21;26.13;65.82
65707;SHT31;52423;43.512;5.220;2022-07-23T00:14:47;26.04;66.06
65707;SHT31;52423;43.512;5.220;2022-07-23T00:17:12;26.03;66.05
65707;SHT31;52423;43.512;5.220;2022-07-23T00:19:38;26.06;65.09
65707;SHT31;52423;43.512;5.220;2022-07-23T00:22:03;26.03;65.55
65707;SHT31;52423;43.512;5.220;2022-07-23T00:24:29;25.99;65.97
65707;SHT31;52423;43.512;5.220;2022-07-23T00:26:55;26.02;66.06
65707;SHT31;52423;43.512;5.220;2022-07-23T00:29:20;26.09;65.76
65707;SHT31;52423;43.512;5.220;2022-07-23T00:31:46;25.99;66.13
65707;SHT31;52423;43.512;5.220;2022-07-23T00:34:12;25.95;66.13
65707;SHT31;52423;43.512;5.220;2022-07-23T00:36:37;25.92;66.23
65707;SHT31;52423;43.512;5.220;2022-07-23T00:39:03;25.90;66.13
65707;SHT31;52423;43.512;5.220;2022-07-23T00:41:29;25.93;65.96
65707;SHT31;52423;43.512;5.220;2022-07-23T00:43:55;26.02;65.66
65707;SHT31;52423;43.512;5.220;2022-07-23T00:46:21;26.12;64.97
65707;SHT31;52423;43.512;5.220;2022-07-23T00:48:47;26.03;64.44
65707;SHT31;52423;43.512;5.220;2022-07-23T00:51:15;25.99;65.57
65707;SHT31;52423;43.512;5.220;2022-07-23T00:53:42;26.00;65.29
65707;SHT31;52423;43.512;5.220;2022-07-23T00:56:08;25.96;65.53
65707;SHT31;52423;43.512;5.220;2022-07-23T00:58:35;25.88;64.83
65707;SHT31;52423;43.512;5.220;2022-07-23T01:01:00;25.82;64.01
65707;SHT31;52423;43.512;5.220;2022-07-23T01:03:26;25.73;64.26
65707;SHT31;52423;43.512;5.220;2022-07-23T01:05:52;25.62;64.95
65707;SHT31;52423;43.512;5.220;2022-07-23T01:08:18;25.71;66.36
65707;SHT31;52423;43.512;5.220;2022-07-23T01:10:46;25.83;66.42
65707;SHT31;52423;43.512;5.220;2022-07-23T01:13:12;25.97;65.98
65707;SHT31;52423;43.512;5.220;2022-07-23T01:15:38;26.12;66.03
65707;SHT31;52423;43.512;5.220;2022-07-23T01:18:05;26.03;66.00
65707;SHT31;52423;43.512;5.220;2022-07-23T01:20:31;25.78;66.24
65707;SHT31;52423;43.512;5.220;2022-07-23T01:22:58;25.76;66.32
65707;SHT31;52423;43.512;5.220;2022-07-23T01:25:24;25.76;66.15
65707;SHT31;52423;43.512;5.220;2022-07-23T01:27:52;25.69;66.30
65707;SHT31;52423;43.512;5.220;2022-07-23T01:30:17;25.54;66.68
65707;SHT31;52423;43.512;5.220;2022-07-23T01:32:43;25.46;66.87
65707;SHT31;52423;43.512;5.220;2022-07-23T01:35:11;25.46;67.05
65707;SHT31;52423;43.512;5.220;2022-07-23T01:37:37;25.39;67.25
65707;SHT31;52423;43.512;5.220;2022-07-23T01:40:04;25.42;66.91
65707;SHT31;52423;43.512;5.220;2022-07-23T01:42:30;25.34;67.24
65707;SHT31;52423;43.512;5.220;2022-07-23T01:44:56;25.25;67.24
65707;SHT31;52423;43.512;5.220;2022-07-23T01:47:22;25.27;67.23
65707;SHT31;52423;43.512;5.220;2022-07-23T01:49:48;25.28;66.39
65707;SHT31;52423;43.512;5.220;2022-07-23T01:52:13;25.37;66.88
65707;SHT31;52423;43.512;5.220;2022-07-23T01:54:39;25.46;66.55
65707;SHT31;52423;43.512;5.220;2022-07-23T01:57:06;25.46;66.41
65707;SHT31;52423;43.512;5.220;2022-07-23T01:59:31;25.44;66.77
65707;SHT31;52423;43.512;5.220;2022-07-23T02:01:58;25.41;66.94
65707;SHT31;52423;43.512;5.220;2022-07-23T02:04:24;25.32;67.41
65707;SHT31;52423;43.512;5.220;2022-07-23T02:06:51;25.28;67.40
65707;SHT31;52423;43.512;5.220;2022-07-23T02:09:17;25.39;67.21
65707;SHT31;52423;43.512;5.220;2022-07-23T02:11:44;25.45;67.07
65707;SHT31;52423;43.512;5.220;2022-07-23T02:14:09;25.46;67.05
65707;SHT31;52423;43.512;5.220;2022-07-23T02:16:35;25.55;66.58
65707;SHT31;52423;43.512;5.220;2022-07-23T02:19:02;25.72;66.80
65707;SHT31;52423;43.512;5.220;2022-07-23T02:21:28;25.63;66.32
65707;SHT31;52423;43.512;5.220;2022-07-23T02:23:53;25.69;66.83
65707;SHT31;52423;43.512;5.220;2022-07-23T02:26:19;25.72;66.68
65707;SHT31;52423;43.512;5.220;2022-07-23T02:28:45;25.79;66.29
65707;SHT31;52423;43.512;5.220;2022-07-23T02:31:10;25.69;66.86
65707;SHT31;52423;43.512;5.220;2022-07-23T02:33:36;25.61;66.49
65707;SHT31;52423;43.512;5.220;2022-07-23T02:36:01;25.59;66.31
65707;SHT31;52423;43.512;5.220;2022-07-23T02:38:27;25.55;66.39
65707;SHT31;52423;43.512;5.220;2022-07-23T02:40:53;25.48;66.61
65707;SHT31;52423;43.512;5.220;2022-07-23T02:43:19;25.46;66.37
65707;SHT31;52423;43.512;5.220;2022-07-23T02:45:44;25.41;66.23
65707;SHT31;52423;43.512;5.220;2022-07-23T02:48:10;25.39;66.93
65707;SHT31;52423;43.512;5.220;2022-07-23T02:50:38;25.39;66.88
65707;SHT31;52423;43.512;5.220;2022-07-23T02:53:04;25.44;66.90
65707;SHT31;52423;43.512;5.220;2022-07-23T02:55:30;25.39;66.94
65707;SHT31;52423;43.512;5.220;2022-07-23T02:57:56;25.34;67.21
65707;SHT31;52423;43.512;5.220;2022-07-23T03:00:22;25.34;67.32
65707;SHT31;52423;43.512;5.220;2022-07-23T03:02:48;25.34;67.34
65707;SHT31;52423;43.512;5.220;2022-07-23T03:05:14;25.31;67.38
65707;SHT31;52423;43.512;5.220;2022-07-23T03:07:39;25.34;66.82
65707;SHT31;52423;43.512;5.220;2022-07-23T03:10:05;25.34;66.90
65707;SHT31;52423;43.512;5.220;2022-07-23T03:12:31;25.35;66.31
65707;SHT31;52423;43.512;5.220;2022-07-23T03:14:57;25.32;67.34
65707;SHT31;52423;43.512;5.220;2022-07-23T03:17:23;25.24;67.72
65707;SHT31;52423;43.512;5.220;2022-07-23T03:19:48;25.15;67.89
65707;SHT31;52423;43.512;5.220;2022-07-23T03:22:14;25.11;68.12
65707;SHT31;52423;43.512;5.220;2022-07-23T03:24:40;25.07;68.28
65707;SHT31;52423;43.512;5.220;2022-07-23T03:27:22;25.01;68.04
65707;SHT31;52423;43.512;5.220;2022-07-23T03:29:50;25.04;67.93
65707;SHT31;52423;43.512;5.220;2022-07-23T03:32:16;24.95;68.08
65707;SHT31;52423;43.512;5.220;2022-07-23T03:34:41;24.95;68.08
65707;SHT31;52423;43.512;5.220;2022-07-23T03:37:07;24.98;67.98
65707;SHT31;52423;43.512;5.220;2022-07-23T03:39:33;24.91;67.99
65707;SHT31;52423;43.512;5.220;2022-07-23T03:41:59;24.88;68.06
65707;SHT31;52423;43.512;5.220;2022-07-23T03:44:24;24.84;68.20
65707;SHT31;52423;43.512;5.220;2022-07-23T03:46:50;24.83;68.51
65707;SHT31;52423;43.512;5.220;2022-07-23T03:49:16;24.82;67.78
65707;SHT31;52423;43.512;5.220;2022-07-23T03:51:41;24.84;68.37
65707;SHT31;52423;43.512;5.220;2022-07-23T03:54:07;24.82;68.43
65707;SHT31;52423;43.512;5.220;2022-07-23T03:56:33;24.80;68.51
65707;SHT31;52423;43.512;5.220;2022-07-23T03:58:58;24.83;68.51
65707;SHT31;52423;43.512;5.220;2022-07-23T04:01:24;24.83;68.58
65707;SHT31;52423;43.512;5.220;2022-07-23T04:03:50;24.77;68.81
65707;SHT31;52423;43.512;5.220;2022-07-23T04:06:15;24.74;69.05
65707;SHT31;52423;43.512;5.220;2022-07-23T04:08:41;24.72;69.35
65707;SHT31;52423;43.512;5.220;2022-07-23T04:11:07;24.64;69.77
65707;SHT31;52423;43.512;5.220;2022-07-23T04:13:33;24.67;69.77
65707;SHT31;52423;43.512;5.220;2022-07-23T04:16:18;24.66;69.99
65707;SHT31;52423;43.512;5.220;2022-07-23T04:19:04;24.49;70.73
65707;SHT31;52423;43.512;5.220;2022-07-23T04:21:49;24.51;70.75
65707;SHT31;52423;43.512;5.220;2022-07-23T04:24:35;24.52;70.84
65707;SHT31;52423;43.512;5.220;2022-07-23T04:27:20;24.56;70.69
65707;SHT31;52423;43.512;5.220;2022-07-23T04:30:06;24.55;70.62
65707;SHT31;52423;43.512;5.220;2022-07-23T04:32:51;24.52;70.80
65707;SHT31;52423;43.512;5.220;2022-07-23T04:35:18;24.55;70.65
65707;SHT31;52423;43.512;5.220;2022-07-23T04:37:43;24.67;70.20
65707;SHT31;52423;43.512;5.220;2022-07-23T04:40:10;24.62;70.62
65707;SHT31;52423;43.512;5.220;2022-07-23T04:42:36;24.57;70.71
65707;SHT31;52423;43.512;5.220;2022-07-23T04:45:02;24.57;70.40
65707;SHT31;52423;43.512;5.220;2022-07-23T04:47:29;24.63;70.26
65707;SHT31;52423;43.512;5.220;2022-07-23T04:49:56;24.62;70.34
65707;SHT31;52423;43.512;5.220;2022-07-23T04:52:22;24.64;70.32
65707;SHT31;52423;43.512;5.220;2022-07-23T04:54:48;24.64;70.37
65707;SHT31;52423;43.512;5.220;2022-07-23T04:57:14;24.66;70.32
65707;SHT31;52423;43.512;5.220;2022-07-23T04:59:39;24.66;70.44
65707;SHT31;52423;43.512;5.220;2022-07-23T05:02:05;24.72;70.08
65707;SHT31;52423;43.512;5.220;2022-07-23T05:04:31;24.76;70.29
65707;SHT31;52423;43.512;5.220;2022-07-23T05:06:57;24.76;70.38
65707;SHT31;52423;43.512;5.220;2022-07-23T05:09:23;24.67;70.68
65707;SHT31;52423;43.512;5.220;2022-07-23T05:11:49;24.70;70.80
65707;SHT31;52423;43.512;5.220;2022-07-23T05:14:15;24.77;70.83
65707;SHT31;52423;43.512;5.220;2022-07-23T05:16:41;24.88;70.78
65707;SHT31;52423;43.512;5.220;2022-07-23T05:19:07;24.94;70.59
65707;SHT31;52423;43.512;5.220;2022-07-23T05:21:32;25.06;70.68
65707;SHT31;52423;43.512;5.220;2022-07-23T05:23:59;25.13;70.35
65707;SHT31;52423;43.512;5.220;2022-07-23T05:26:24;25.20;69.89
65707;SHT31;52423;43.512;5.220;2022-07-23T05:28:51;25.28;69.76
65707;SHT31;52423;43.512;5.220;2022-07-23T05:31:17;25.38;69.46
65707;SHT31;52423;43.512;5.220;2022-07-23T05:33:43;25.48;68.94
65707;SHT31;52423;43.512;5.220;2022-07-23T05:36:09;25.54;68.47
65707;SHT31;52423;43.512;5.220;2022-07-23T05:38:35;25.63;67.67
65707;SHT31;52423;43.512;5.220;2022-07-23T05:41:01;25.75;66.96
65707;SHT31;52423;43.512;5.220;2022-07-23T05:43:26;25.83;66.84
65707;SHT31;52423;43.512;5.220;2022-07-23T05:45:52;25.96;66.72
65707;SHT31;52423;43.512;5.220;2022-07-23T05:48:19;26.04;66.40
65707;SHT31;52423;43.512;5.220;2022-07-23T05:50:46;25.99;66.08
65707;SHT31;52423;43.512;5.220;2022-07-23T05:53:12;25.93;66.31
65707;SHT31;52423;43.512;5.220;2022-07-23T05:55:38;25.96;66.61
65707;SHT31;52423;43.512;5.220;2022-07-23T05:58:04;25.92;66.26
65707;SHT31;52423;43.512;5.220;2022-07-23T06:00:30;25.90;66.58
65707;SHT31;52423;43.512;5.220;2022-07-23T06:02:56;25.92;66.67
65707;SHT31;52423;43.512;5.220;2022-07-23T06:05:22;25.90;66.44
65707;SHT31;52423;43.512;5.220;2022-07-23T06:07:48;25.92;66.65
65707;SHT31;52423;43.512;5.220;2022-07-23T06:10:13;25.93;66.69
65707;SHT31;52423;43.512;5.220;2022-07-23T06:12:39;26.02;66.51
65707;SHT31;52423;43.512;5.220;2022-07-23T06:15:05;26.09;66.30
65707;SHT31;52423;43.512;5.220;2022-07-23T06:17:31;26.09;66.58
65707;SHT31;52423;43.512;5.220;2022-07-23T06:19:57;26.16;66.58
65707;SHT31;52423;43.512;5.220;2022-07-23T06:22:22;26.22;66.09
65707;SHT31;52423;43.512;5.220;2022-07-23T06:24:49;26.32;66.57
65707;SHT31;52423;43.512;5.220;2022-07-23T06:27:16;26.55;65.75
65707;SHT31;52423;43.512;5.220;2022-07-23T06:29:42;26.78;65.31
65707;SHT31;52423;43.512;5.220;2022-07-23T06:32:08;26.85;65.41
65707;SHT31;52423;43.512;5.220;2022-07-23T06:34:34;26.98;65.15
65707;SHT31;52423;43.512;5.220;2022-07-23T06:37:00;27.02;64.72
65707;SHT31;52423;43.512;5.220;2022-07-23T06:39:26;27.11;63.74
65707;SHT31;52423;43.512;5.220;2022-07-23T06:41:52;27.15;63.15
65707;SHT31;52423;43.512;5.220;2022-07-23T06:44:18;27.25;63.32
65707;SHT31;52423;43.512;5.220;2022-07-23T06:46:44;27.23;63.04
65707;SHT31;52423;43.512;5.220;2022-07-23T06:49:10;27.23;62.58
65707;SHT31;52423;43.512;5.220;2022-07-23T06:51:36;27.25;62.10
65707;SHT31;52423;43.512;5.220;2022-07-23T06:54:03;27.38;62.00
65707;SHT31;52423;43.512;5.220;2022-07-23T06:56:29;27.36;61.98
65707;SHT31;52423;43.512;5.220;2022-07-23T06:58:54;27.45;61.84
65707;SHT31;52423;43.512;5.220;2022-07-23T07:01:20;27.47;61.99
65707;SHT31;52423;43.512;5.220;2022-07-23T07:03:46;27.53;61.68
65707;SHT31;52423;43.512;5.220;2022-07-23T07:06:13;27.56;61.70
65707;SHT31;52423;43.512;5.220;2022-07-23T07:08:39;27.59;61.75
65707;SHT31;52423;43.512;5.220;2022-07-23T07:11:05;27.62;61.92
65707;SHT31;52423;43.512;5.220;2022-07-23T07:13:30;27.63;61.77
65707;SHT31;52423;43.512;5.220;2022-07-23T07:15:56;27.67;61.80
65707;SHT31;52423;43.512;5.220;2022-07-23T07:18:22;27.67;61.92
65707;SHT31;52423;43.512;5.220;2022-07-23T07:20:48;27.67;62.06
65707;SHT31;52423;43.512;5.220;2022-07-23T07:23:14;27.70;61.88
65707;SHT31;52423;43.512;5.220;2022-07-23T07:25:40;27.66;61.11
65707;SHT31;52423;43.512;5.220;2022-07-23T07:28:06;27.69;60.69
65707;SHT31;52423;43.512;5.220;2022-07-23T07:30:31;27.70;60.77
65707;SHT31;52423;43.512;5.220;2022-07-23T07:32:57;27.71;60.96
65707;SHT31;52423;43.512;5.220;2022-07-23T07:35:23;27.80;61.39
65707;SHT31;52423;43.512;5.220;2022-07-23T07:37:49;27.90;61.89
65707;SHT31;52423;43.512;5.220;2022-07-23T07:40:14;28.04;61.94
65707;SHT31;52423;43.512;5.220;2022-07-23T07:42:47;28.07;61.99
65707;SHT31;52423;43.512;5.220;2022-07-23T07:45:13;28.15;61.79
65707;SHT31;52423;43.512;5.220;2022-07-23T07:47:39;28.11;62.56
65707;SHT31;52423;43.512;5.220;2022-07-23T07:50:05;28.17;62.92
65707;SHT31;52423;43.512;5.220;2022-07-23T07:52:31;28.01;63.60
65707;SHT31;52423;43.512;5.220;2022-07-23T07:54:56;28.10;63.60
65707;SHT31;52423;43.512;5.220;2022-07-23T07:57:22;28.14;64.47
65707;SHT31;52423;43.512;5.220;2022-07-23T07:59:48;28.10;65.27
65707;SHT31;52423;43.512;5.220;2022-07-23T08:02:13;28.35;65.64
65707;SHT31;52423;43.512;5.220;2022-07-23T08:04:39;28.44;65.64
65707;SHT31;52423;43.512;5.220;2022-07-23T08:07:04;28.44;65.53
65707;SHT31;52423;43.512;5.220;2022-07-23T08:09:30;28.40;65.57
65707;SHT31;52423;43.512;5.220;2022-07-23T08:11:56;28.35;65.23
65707;SHT31;52423;43.512;5.220;2022-07-23T08:14:21;28.25;65.27
65707;SHT31;52423;43.512;5.220;2022-07-23T08:16:47;28.27;65.33
65707;SHT31;52423;43.512;5.220;2022-07-23T08:19:13;28.32;65.31
65707;SHT31;52423;43.512;5.220;2022-07-23T08:21:38;28.40;64.80
65707;SHT31;52423;43.512;5.220;2022-07-23T08:24:04;28.41;64.59
65707;SHT31;52423;43.512;5.220;2022-07-23T08:26:30;28.63;63.42
65707;SHT31;52423;43.512;5.220;2022-07-23T08:28:56;28.73;63.87
65707;SHT31;52423;43.512;5.220;2022-07-23T08:31:21;28.88;63.99
65707;SHT31;52423;43.512;5.220;2022-07-23T08:33:47;29.13;63.96
65707;SHT31;52423;43.512;5.220;2022-07-23T08:36:13;28.93;64.13
65707;SHT31;52423;43.512;5.220;2022-07-23T08:38:39;28.79;64.70
65707;SHT31;52423;43.512;5.220;2022-07-23T08:41:07;28.83;64.39
65707;SHT31;52423;43.512;5.220;2022-07-23T08:43:33;28.79;64.65
65707;SHT31;52423;43.512;5.220;2022-07-23T08:46:02;28.78;64.28
65707;SHT31;52423;43.512;5.220;2022-07-23T08:48:32;29.00;64.05
65707;SHT31;52423;43.512;5.220;2022-07-23T08:51:01;29.23;63.80
65707;SHT31;52423;43.512;5.220;2022-07-23T08:53:29;29.41;62.79
65707;SHT31;52423;43.512;5.220;2022-07-23T08:55:58;29.58;61.15
65707;SHT31;52423;43.512;5.220;2022-07-23T08:58:25;29.54;61.84
65707;SHT31;52423;43.512;5.220;2022-07-23T09:00:51;29.60;62.00
65707;SHT31;52423;43.512;5.220;2022-07-23T09:03:19;29.84;60.97
65707;SHT31;52423;43.512;5.220;2022-07-23T09:05:45;30.08;60.24
65707;SHT31;52423;43.512;5.220;2022-07-23T09:08:16;30.05;60.01
65707;SHT31;52423;43.512;5.220;2022-07-23T09:10:55;30.05;59.77
65707;SHT31;52423;43.512;5.220;2022-07-23T09:15:53;29.89;59.28
65707;SHT31;52423;43.512;5.220;2022-07-23T09:18:18;29.97;59.19
65707;SHT31;52423;43.512;5.220;2022-07-23T09:20:44;30.02;59.88
65707;SHT31;52423;43.512;5.220;2022-07-23T09:23:10;29.92;60.09
65707;SHT31;52423;43.512;5.220;2022-07-23T09:25:36;29.89;60.40
65707;SHT31;52423;43.512;5.220;2022-07-23T09:28:02;29.81;60.95
65707;SHT31;52423;43.512;5.220;2022-07-23T09:30:32;29.88;60.56
65707;SHT31;52423;43.512;5.220;2022-07-23T09:33:13;29.94;60.43
65707;SHT31;52423;43.512;5.220;2022-07-23T09:35:55;29.97;60.33
65707;SHT31;52423;43.512;5.220;2022-07-23T09:38:23;29.88;60.93
65707;SHT31;52423;43.512;5.220;2022-07-23T09:41:08;29.91;61.06
65707;SHT31;52423;43.512;5.220;2022-07-23T09:43:35;29.95;60.52
65707;SHT31;52423;43.512;5.220;2022-07-23T09:46:24;30.23;60.98
65707;SHT31;52423;43.512;5.220;2022-07-23T09:48:54;30.56;59.49
65707;SHT31;52423;43.512;5.220;2022-07-23T09:51:23;30.84;58.56
65707;SHT31;52423;43.512;5.220;2022-07-23T09:53:59;30.79;59.39
65707;SHT31;52423;43.512;5.220;2022-07-23T09:56:25;30.88;58.36
65707;SHT31;52423;43.512;5.220;2022-07-23T09:58:53;30.64;59.30
65707;SHT31;52423;43.512;5.220;2022-07-23T10:01:53;30.37;59.30
65707;SHT31;52423;43.512;5.220;2022-07-23T10:04:21;30.18;58.81
65707;SHT31;52423;43.512;5.220;2022-07-23T10:06:51;30.33;58.81
65707;SHT31;52423;43.512;5.220;2022-07-23T10:09:23;30.74;58.70
65707;SHT31;52423;43.512;5.220;2022-07-23T10:11:49;31.08;56.83
65707;SHT31;52423;43.512;5.220;2022-07-23T10:14:16;31.24;56.44
65707;SHT31;52423;43.512;5.220;2022-07-23T10:16:42;31.28;56.78
65707;SHT31;52423;43.512;5.220;2022-07-23T10:19:08;31.31;56.71
65707;SHT31;52423;43.512;5.220;2022-07-23T10:21:40;31.24;56.37
65707;SHT31;52423;43.512;5.220;2022-07-23T10:24:18;31.55;56.00
65707;SHT31;52423;43.512;5.220;2022-07-23T10:30:06;31.83;54.06
65707;SHT31;52423;43.512;5.220;2022-07-23T10:37:49;32.06;53.28
65707;SHT31;52423;43.512;5.220;2022-07-23T10:40:19;32.09;53.36
65707;SHT31;52423;43.512;5.220;2022-07-23T10:42:46;32.20;53.99
65707;SHT31;52423;43.512;5.220;2022-07-23T10:47:54;32.60;51.75
65707;SHT31;52423;43.512;5.220;2022-07-23T10:50:27;32.88;51.52
65707;SHT31;52423;43.512;5.220;2022-07-23T10:53:12;32.40;52.06
65707;SHT31;52423;43.512;5.220;2022-07-23T10:55:50;32.33;52.53
65707;SHT31;52423;43.512;5.220;2022-07-23T10:58:45;32.49;52.98
65707;SHT31;52423;43.512;5.220;2022-07-23T11:01:34;32.56;53.31
65707;SHT31;52423;43.512;5.220;2022-07-23T11:04:00;32.72;52.65
65707;SHT31;52423;43.512;5.220;2022-07-23T11:20:20;33.22;51.14
65707;SHT31;52423;43.512;5.220;2022-07-23T11:22:49;33.26;50.17
65707;SHT31;52423;43.512;5.220;2022-07-23T11:27:51;33.31;48.69
65707;SHT31;52423;43.512;5.220;2022-07-23T11:32:52;33.50;46.61
65707;SHT31;52423;43.512;5.220;2022-07-23T11:37:45;33.49;45.92
65707;SHT31;52423;43.512;5.220;2022-07-23T11:40:14;33.17;45.42
65707;SHT31;52423;43.512;5.220;2022-07-23T11:42:52;33.23;43.75
65707;SHT31;52423;43.512;5.220;2022-07-23T11:45:18;33.25;42.44
65707;SHT31;52423;43.512;5.220;2022-07-23T11:47:43;33.55;42.66
65707;SHT31;52423;43.512;5.220;2022-07-23T11:50:09;33.76;43.26
65707;SHT31;52423;43.512;5.220;2022-07-23T11:52:35;33.68;41.96
65707;SHT31;52423;43.512;5.220;2022-07-23T11:55:07;33.68;41.09
65707;SHT31;52423;43.512;5.220;2022-07-23T11:57:35;33.66;43.05
65707;SHT31;52423;43.512;5.220;2022-07-23T12:02:33;33.65;44.10
65707;SHT31;52423;43.512;5.220;2022-07-23T12:04:59;33.68;44.04
65707;SHT31;52423;43.512;5.220;2022-07-23T12:07:31;33.90;41.55
65707;SHT31;52423;43.512;5.220;2022-07-23T12:09:58;33.74;41.68
65707;SHT31;52423;43.512;5.220;2022-07-23T12:12:25;33.94;42.20
65707;SHT31;52423;43.512;5.220;2022-07-23T12:14:57;34.09;45.43
65707;SHT31;52423;43.512;5.220;2022-07-23T12:17:33;34.06;46.80
65707;SHT31;52423;43.512;5.220;2022-07-23T12:20:00;33.77;47.74
65707;SHT31;52423;43.512;5.220;2022-07-23T12:22:36;33.85;47.65
65707;SHT31;52423;43.512;5.220;2022-07-23T12:27:38;33.66;47.96
65707;SHT31;52423;43.512;5.220;2022-07-23T12:30:20;33.48;47.70
65707;SHT31;52423;43.512;5.220;2022-07-23T12:32:49;33.28;48.48
65707;SHT31;52423;43.512;5.220;2022-07-23T12:35:16;33.53;48.47
65707;SHT31;52423;43.512;5.220;2022-07-23T12:37:44;33.53;46.67
65707;SHT31;52423;43.512;5.220;2022-07-23T12:40:28;33.90;47.06
65707;SHT31;52423;43.512;5.220;2022-07-23T12:43:02;33.60;48.44
65707;SHT31;52423;43.512;5.220;2022-07-23T12:48:16;33.53;49.60
65707;SHT31;52423;43.512;5.220;2022-07-23T12:50:57;33.14;48.42
65707;SHT31;52423;43.512;5.220;2022-07-23T12:53:25;33.23;47.47
65707;SHT31;52423;43.512;5.220;2022-07-23T12:56:02;33.45;47.21
65707;SHT31;52423;43.512;5.220;2022-07-23T12:58:39;33.59;45.88
65707;SHT31;52423;43.512;5.220;2022-07-23T13:01:06;33.76;46.40
65707;SHT31;52423;43.512;5.220;2022-07-23T13:03:40;33.59;45.49
65707;SHT31;52423;43.512;5.220;2022-07-23T13:06:11;33.53;46.49
65707;SHT31;52423;43.512;5.220;2022-07-23T13:08:38;33.29;46.54
65707;SHT31;52423;43.512;5.220;2022-07-23T13:11:06;33.15;47.60
65707;SHT31;52423;43.512;5.220;2022-07-23T13:13:34;33.12;48.35
65707;SHT31;52423;43.512;5.220;2022-07-23T13:16:00;33.41;48.33
65707;SHT31;52423;43.512;5.220;2022-07-23T13:18:27;33.36;47.83
65707;SHT31;52423;43.512;5.220;2022-07-23T13:20:53;33.28;48.15
65707;SHT31;52423;43.512;5.220;2022-07-23T13:23:19;33.45;47.11
65707;SHT31;52423;43.512;5.220;2022-07-23T13:25:46;33.49;44.91
65707;SHT31;52423;43.512;5.220;2022-07-23T13:28:12;33.46;44.36
65707;SHT31;52423;43.512;5.220;2022-07-23T13:30:40;33.52;43.13
65707;SHT31;52423;43.512;5.220;2022-07-23T13:33:06;33.36;43.90
65707;SHT31;52423;43.512;5.220;2022-07-23T13:35:34;33.36;43.01
65707;SHT31;52423;43.512;5.220;2022-07-23T13:38:00;33.29;43.55
65707;SHT31;52423;43.512;5.220;2022-07-23T13:40:26;33.38;43.46
65707;SHT31;52423;43.512;5.220;2022-07-23T13:42:51;33.36;43.00
65707;SHT31;52423;43.512;5.220;2022-07-23T13:45:17;33.48;42.80
65707;SHT31;52423;43.512;5.220;2022-07-23T13:47:43;33.19;42.68
65707;SHT31;52423;43.512;5.220;2022-07-23T13:50:09;33.21;42.15
65707;SHT31;52423;43.512;5.220;2022-07-23T13:52:35;33.18;44.17
65707;SHT31;52423;43.512;5.220;2022-07-23T13:55:02;33.25;43.48
65707;SHT31;52423;43.512;5.220;2022-07-23T13:57:30;33.18;43.44
65707;SHT31;52423;43.512;5.220;2022-07-23T13:59:56;32.95;44.30
65707;SHT31;52423;43.512;5.220;2022-07-23T14:02:22;32.85;44.92
65707;SHT31;52423;43.512;5.220;2022-07-23T14:04:48;32.88;45.48
65707;SHT31;52423;43.512;5.220;2022-07-23T14:07:14;32.57;46.67
65707;SHT31;52423;43.512;5.220;2022-07-23T14:09:39;32.68;46.40
65707;SHT31;52423;43.512;5.220;2022-07-23T14:12:05;32.45;47.43
65707;SHT31;52423;43.512;5.220;2022-07-23T14:14:31;32.30;47.50
65707;SHT31;52423;43.512;5.220;2022-07-23T14:16:57;32.03;46.83
65707;SHT31;52423;43.512;5.220;2022-07-23T14:19:22;32.23;46.58
65707;SHT31;52423;43.512;5.220;2022-07-23T14:21:48;32.27;48.33
65707;SHT31;52423;43.512;5.220;2022-07-23T14:24:15;32.13;48.32
65707;SHT31;52423;43.512;5.220;2022-07-23T14:26:41;31.96;47.62
65707;SHT31;52423;43.512;5.220;2022-07-23T14:29:07;32.12;46.46
65707;SHT31;52423;43.512;5.220;2022-07-23T14:31:32;32.13;47.02
65707;SHT31;52423;43.512;5.220;2022-07-23T14:33:58;32.05;46.65
65707;SHT31;52423;43.512;5.220;2022-07-23T14:36:25;31.99;47.32
65707;SHT31;52423;43.512;5.220;2022-07-23T14:38:51;31.82;47.64
65707;SHT31;52423;43.512;5.220;2022-07-23T14:41:17;31.76;47.53
65707;SHT31;52423;43.512;5.220;2022-07-23T14:43:43;31.78;46.99
65707;SHT31;52423;43.512;5.220;2022-07-23T14:46:08;31.78;47.20
65707;SHT31;52423;43.512;5.220;2022-07-23T14:48:36;31.57;46.18
65707;SHT31;52423;43.512;5.220;2022-07-23T14:51:02;31.45;46.88
65707;SHT31;52423;43.512;5.220;2022-07-23T14:53:28;31.46;47.34
65707;SHT31;52423;43.512;5.220;2022-07-23T14:55:54;31.68;46.04
65707;SHT31;52423;43.512;5.220;2022-07-23T14:58:21;31.57;46.63
65707;SHT31;52423;43.512;5.220;2022-07-23T15:00:46;31.55;47.24
65707;SHT31;52423;43.512;5.220;2022-07-23T15:03:12;31.49;46.48
65707;SHT31;52423;43.512;5.220;2022-07-23T15:05:38;31.61;46.36
65707;SHT31;52423;43.512;5.220;2022-07-23T15:08:03;31.45;46.49
65707;SHT31;52423;43.512;5.220;2022-07-23T15:10:29;31.69;45.74
65707;SHT31;52423;43.512;5.220;2022-07-23T15:12:55;31.63;45.46
65707;SHT31;52423;43.512;5.220;2022-07-23T15:15:21;31.63;45.37
65707;SHT31;52423;43.512;5.220;2022-07-23T15:17:47;31.76;45.28
65707;SHT31;52423;43.512;5.220;2022-07-23T15:20:12;31.78;44.22
65707;SHT31;52423;43.512;5.220;2022-07-23T15:22:38;31.57;46.03
65707;SHT31;52423;43.512;5.220;2022-07-23T15:25:05;31.65;45.40
65707;SHT31;52423;43.512;5.220;2022-07-23T15:27:31;31.62;45.42
65707;SHT31;52423;43.512;5.220;2022-07-23T15:29:57;31.35;46.24
65707;SHT31;52423;43.512;5.220;2022-07-23T15:32:22;31.35;46.34
65707;SHT31;52423;43.512;5.220;2022-07-23T15:34:52;31.28;46.29
65707;SHT31;52423;43.512;5.220;2022-07-23T15:37:18;31.32;45.91
65707;SHT31;52423;43.512;5.220;2022-07-23T15:39:44;31.20;45.87
65707;SHT31;52423;43.512;5.220;2022-07-23T15:42:09;31.14;45.91
65707;SHT31;52423;43.512;5.220;2022-07-23T15:44:35;31.11;45.30
65707;SHT31;52423;43.512;5.220;2022-07-23T15:47:01;31.14;45.77
65707;SHT31;52423;43.512;5.220;2022-07-23T15:49:27;30.97;45.15
65707;SHT31;52423;43.512;5.220;2022-07-23T15:51:54;30.94;45.10
65707;SHT31;52423;43.512;5.220;2022-07-23T15:54:21;30.83;45.18
65707;SHT31;52423;43.512;5.220;2022-07-23T15:56:47;30.70;45.51
65707;SHT31;52423;43.512;5.220;2022-07-23T15:59:12;30.76;45.51
65707;SHT31;52423;43.512;5.220;2022-07-23T16:01:38;30.70;46.25
65707;SHT31;52423;43.512;5.220;2022-07-23T16:04:04;30.77;46.12
65707;SHT31;52423;43.512;5.220;2022-07-23T16:06:32;30.64;46.20
65707;SHT31;52423;43.512;5.220;2022-07-23T16:08:58;30.74;46.13
65707;SHT31;52423;43.512;5.220;2022-07-23T16:11:23;30.55;46.63
65707;SHT31;52423;43.512;5.220;2022-07-23T16:13:49;30.56;47.02